sensor_id;sensor_type;location;lat;lon;timestamp;pressure;altitude;pressure_sealevel;temperature;humidity
9893;BME280;4985;49.092;8.542;2024-01-06T00:01:17;98171.22;;;15.26;50.55
9893;BME280;4985;49.092;8.542;2024-01-06T00:03:42;98162.47;;;15.26;50.42
9893;BME280;4985;49.092;8.542;2024-01-06T00:06:11;98162.47;;;15.26;50.59
9893;BME280;4985;49.092;8.542;2024-01-06T00:08:36;98165.13;;;15.26;50.36
9893;BME280;4985;49.092;8.542;2024-01-06T00:11:02;98163.50;;;15.25;50.36
9893;BME280;4985;49.092;8.542;2024-01-06T00:13:28;98157.16;;;15.26;50.24
9893;BME280;4985;49.092;8.542;2024-01-06T00:15:53;98163.28;;;15.26;50.68
9893;BME280;4985;49.092;8.542;2024-01-06T00:18:18;98162.47;;;15.26;50.43
9893;BME280;4985;49.092;8.542;2024-01-06T00:20:44;98158.19;;;15.25;50.35
9893;BME280;4985;49.092;8.542;2024-01-06T00:23:09;98161.66;;;15.25;50.44
9893;BME280;4985;49.092;8.542;2024-01-06T00:25:34;98165.34;;;15.24;50.60
9893;BME280;4985;49.092;8.542;2024-01-06T00:28:00;98163.50;;;15.25;50.69
9893;BME280;4985;49.092;8.542;2024-01-06T00:30:25;98164.53;;;15.24;50.47
9893;BME280;4985;49.092;8.542;2024-01-06T00:32:50;98164.53;;;15.24;50.56
9893;BME280;4985;49.092;8.542;2024-01-06T00:35:16;98162.69;;;15.24;50.45
9893;BME280;4985;49.092;8.542;2024-01-06T00:37:41;98157.41;;;15.24;50.57
9893;BME280;4985;49.092;8.542;2024-01-06T00:40:07;98161.88;;;15.24;50.62
9893;BME280;4985;49.092;8.542;2024-01-06T00:42:32;98153.94;;;15.24;50.25
9893;BME280;4985;49.092;8.542;2024-01-06T00:44:57;98158.44;;;15.23;50.49
9893;BME280;4985;49.092;8.542;2024-01-06T00:47:22;98166.38;;;15.23;50.72
9893;BME280;4985;49.092;8.542;2024-01-06T00:49:49;98163.72;;;15.23;50.46
9893;BME280;4985;49.092;8.542;2024-01-06T00:52:14;98153.13;;;15.23;50.67
9893;BME280;4985;49.092;8.542;2024-01-06T00:54:40;98157.63;;;15.23;50.50
9893;BME280;4985;49.092;8.542;2024-01-06T00:57:05;98161.31;;;15.22;50.74
9893;BME280;4985;49.092;8.542;2024-01-06T00:59:30;98166.59;;;15.22;50.57
9893;BME280;4985;49.092;8.542;2024-01-06T01:01:56;98171.09;;;15.21;50.69
9893;BME280;4985;49.092;8.542;2024-01-06T01:04:21;98171.91;;;15.22;50.69
9893;BME280;4985;49.092;8.542;2024-01-06T01:06:46;98171.09;;;15.21;50.60
9893;BME280;4985;49.092;8.542;2024-01-06T01:09:12;98181.69;;;15.21;50.28
9893;BME280;4985;49.092;8.542;2024-01-06T01:11:39;98186.19;;;15.21;50.34
9893;BME280;4985;49.092;8.542;2024-01-06T01:14:04;98193.13;;;15.22;50.12
9893;BME280;4985;49.092;8.542;2024-01-06T01:16:30;98194.97;;;15.21;50.34
9893;BME280;4985;49.092;8.542;2024-01-06T01:18:57;98194.97;;;15.21;50.28
9893;BME280;4985;49.092;8.542;2024-01-06T01:21:22;98197.59;;;15.21;50.70
9893;BME280;4985;49.092;8.542;2024-01-06T01:23:48;98202.09;;;15.21;50.65
9893;BME280;4985;49.092;8.542;2024-01-06T01:26:13;98204.75;;;15.21;50.24
9893;BME280;4985;49.092;8.542;2024-01-06T01:28:38;98211.91;;;15.20;50.28
9893;BME280;4985;49.092;8.542;2024-01-06T01:31:04;98211.09;;;15.20;50.55
9893;BME280;4985;49.092;8.542;2024-01-06T01:33:29;98205.78;;;15.20;50.45
9893;BME280;4985;49.092;8.542;2024-01-06T01:35:54;98211.09;;;15.20;50.26
9893;BME280;4985;49.092;8.542;2024-01-06T01:38:20;98216.38;;;15.20;50.53
9893;BME280;4985;49.092;8.542;2024-01-06T01:40:45;98217.19;;;15.20;50.70
9893;BME280;4985;49.092;8.542;2024-01-06T01:43:19;98224.34;;;15.20;50.58
9893;BME280;4985;49.092;8.542;2024-01-06T01:45:50;98226.19;;;15.19;50.65
9893;BME280;4985;49.092;8.542;2024-01-06T01:48:17;98231.47;;;15.19;50.64
9893;BME280;4985;49.092;8.542;2024-01-06T01:50:42;98235.97;;;15.19;50.70
9893;BME280;4985;49.092;8.542;2024-01-06T01:53:07;98238.63;;;15.19;50.73
9893;BME280;4985;49.092;8.542;2024-01-06T01:55:33;98243.13;;;15.18;50.35
9893;BME280;4985;49.092;8.542;2024-01-06T01:57:58;98242.91;;;15.20;50.32
9893;BME280;4985;49.092;8.542;2024-01-06T02:00:23;98246.56;;;15.19;50.26
9893;BME280;4985;49.092;8.542;2024-01-06T02:02:49;98241.28;;;15.19;50.61
9893;BME280;4985;49.092;8.542;2024-01-06T02:05:14;98247.59;;;15.18;50.54
9893;BME280;4985;49.092;8.542;2024-01-06T02:07:40;98237.00;;;15.18;50.25
9893;BME280;4985;49.092;8.542;2024-01-06T02:10:06;98242.31;;;15.18;50.28
9893;BME280;4985;49.092;8.542;2024-01-06T02:12:32;98246.78;;;15.17;50.39
9893;BME280;4985;49.092;8.542;2024-01-06T02:14:57;98242.31;;;15.18;50.30
9893;BME280;4985;49.092;8.542;2024-01-06T02:17:22;98248.63;;;15.17;50.49
9893;BME280;4985;49.092;8.542;2024-01-06T02:19:48;98247.81;;;15.16;50.73
9893;BME280;4985;49.092;8.542;2024-01-06T02:22:13;98252.28;;;15.15;50.66
9893;BME280;4985;49.092;8.542;2024-01-06T02:24:38;98260.25;;;15.15;50.69
9893;BME280;4985;49.092;8.542;2024-01-06T02:27:04;98256.78;;;15.15;50.44
9893;BME280;4985;49.092;8.542;2024-01-06T02:29:29;98263.94;;;15.14;50.48
9893;BME280;4985;49.092;8.542;2024-01-06T02:31:54;98254.94;;;15.15;50.51
9893;BME280;4985;49.092;8.542;2024-01-06T02:34:20;98258.63;;;15.14;50.49
9893;BME280;4985;49.092;8.542;2024-01-06T02:36:45;98266.56;;;15.14;50.32
9893;BME280;4985;49.092;8.542;2024-01-06T02:39:10;98257.00;;;15.13;50.70
9893;BME280;4985;49.092;8.542;2024-01-06T02:41:36;98267.38;;;15.15;50.42
9893;BME280;4985;49.092;8.542;2024-01-06T02:44:03;98267.59;;;15.13;50.47
9893;BME280;4985;49.092;8.542;2024-01-06T02:46:28;98270.25;;;15.13;50.48
9893;BME280;4985;49.092;8.542;2024-01-06T02:48:54;98269.44;;;15.13;50.29
9893;BME280;4985;49.092;8.542;2024-01-06T02:51:19;98273.13;;;15.12;50.31
9893;BME280;4985;49.092;8.542;2024-01-06T02:53:45;98278.22;;;15.13;50.59
9893;BME280;4985;49.092;8.542;2024-01-06T02:56:11;98279.25;;;15.12;50.45
9893;BME280;4985;49.092;8.542;2024-01-06T02:58:37;98278.44;;;15.12;50.50
9893;BME280;4985;49.092;8.542;2024-01-06T03:01:02;98288.22;;;15.11;50.43
9893;BME280;4985;49.092;8.542;2024-01-06T03:03:27;98278.44;;;15.12;50.48
9893;BME280;4985;49.092;8.542;2024-01-06T03:05:53;98282.91;;;15.11;50.72
9893;BME280;4985;49.092;8.542;2024-01-06T03:08:18;98288.22;;;15.11;50.48
9893;BME280;4985;49.092;8.542;2024-01-06T03:10:44;98286.38;;;15.12;50.25
9893;BME280;4985;49.092;8.542;2024-01-06T03:13:09;98289.03;;;15.12;50.35
9893;BME280;4985;49.092;8.542;2024-01-06T03:15:34;98283.72;;;15.12;50.41
9893;BME280;4985;49.092;8.542;2024-01-06T03:18:00;98289.03;;;15.12;50.42
9893;BME280;4985;49.092;8.542;2024-01-06T03:20:25;98292.72;;;15.11;50.34
9893;BME280;4985;49.092;8.542;2024-01-06T03:22:50;98293.53;;;15.11;50.35
9893;BME280;4985;49.092;8.542;2024-01-06T03:25:16;98291.91;;;15.10;50.66
9893;BME280;4985;49.092;8.542;2024-01-06T03:27:41;98295.38;;;15.11;50.31
9893;BME280;4985;49.092;8.542;2024-01-06T03:30:07;98297.19;;;15.10;50.43
9893;BME280;4985;49.092;8.542;2024-01-06T03:32:32;98298.22;;;15.09;50.46
9893;BME280;4985;49.092;8.542;2024-01-06T03:34:57;98294.56;;;15.10;50.58
9893;BME280;4985;49.092;8.542;2024-01-06T03:37:23;98298.22;;;15.09;50.52
9893;BME280;4985;49.092;8.542;2024-01-06T03:39:48;98295.59;;;15.09;50.61
9893;BME280;4985;49.092;8.542;2024-01-06T03:42:13;98300.88;;;15.09;50.50
9893;BME280;4985;49.092;8.542;2024-01-06T03:44:39;98292.94;;;15.09;50.33
9893;BME280;4985;49.092;8.542;2024-01-06T03:47:04;98297.19;;;15.10;50.71
9893;BME280;4985;49.092;8.542;2024-01-06T03:49:30;98293.75;;;15.10;50.49
9893;BME280;4985;49.092;8.542;2024-01-06T03:51:55;98297.19;;;15.10;50.49
9893;BME280;4985;49.092;8.542;2024-01-06T03:54:21;98291.09;;;15.10;50.52
9893;BME280;4985;49.092;8.542;2024-01-06T03:56:47;98288.44;;;15.10;50.46
9893;BME280;4985;49.092;8.542;2024-01-06T03:59:13;98284.97;;;15.09;50.42
9893;BME280;4985;49.092;8.542;2024-01-06T04:01:38;98284.97;;;15.09;50.68
9893;BME280;4985;49.092;8.542;2024-01-06T04:04:03;98286.81;;;15.09;50.75
9893;BME280;4985;49.092;8.542;2024-01-06T04:06:29;98291.31;;;15.08;50.41
9893;BME280;4985;49.092;8.542;2024-01-06T04:08:55;98299.25;;;15.08;50.55
9893;BME280;4985;49.092;8.542;2024-01-06T04:11:21;98293.97;;;15.08;50.36
9893;BME280;4985;49.092;8.542;2024-01-06T04:13:46;98307.22;;;15.08;50.31
9893;BME280;4985;49.092;8.542;2024-01-06T04:16:12;98302.94;;;15.07;50.70
9893;BME280;4985;49.092;8.542;2024-01-06T04:18:37;98306.41;;;15.08;50.59
9893;BME280;4985;49.092;8.542;2024-01-06T04:21:03;98303.97;;;15.06;50.35
9893;BME280;4985;49.092;8.542;2024-01-06T04:23:28;98303.97;;;15.06;50.83
9893;BME280;4985;49.092;8.542;2024-01-06T04:25:54;98301.50;;;15.05;50.46
9893;BME280;4985;49.092;8.542;2024-01-06T04:28:19;98298.06;;;15.04;50.75
9893;BME280;4985;49.092;8.542;2024-01-06T04:30:44;98298.06;;;15.04;50.52
9893;BME280;4985;49.092;8.542;2024-01-06T04:33:10;98291.13;;;15.03;50.58
9893;BME280;4985;49.092;8.542;2024-01-06T04:35:35;98291.13;;;15.03;50.64
9893;BME280;4985;49.092;8.542;2024-01-06T04:38:00;98290.31;;;15.03;50.66
9893;BME280;4985;49.092;8.542;2024-01-06T04:40:25;98286.88;;;15.02;50.17
9893;BME280;4985;49.092;8.542;2024-01-06T04:42:51;98287.88;;;15.01;50.39
9893;BME280;4985;49.092;8.542;2024-01-06T04:45:16;98284.44;;;15.01;50.15
9893;BME280;4985;49.092;8.542;2024-01-06T04:47:44;98290.53;;;15.01;50.52
9893;BME280;4985;49.092;8.542;2024-01-06T04:50:10;98293.19;;;15.01;50.53
9893;BME280;4985;49.092;8.542;2024-01-06T04:52:35;98301.94;;;15.02;50.35
9893;BME280;4985;49.092;8.542;2024-01-06T04:55:00;98303.78;;;15.01;50.46
9893;BME280;4985;49.092;8.542;2024-01-06T04:57:27;98298.50;;;15.01;50.62
9893;BME280;4985;49.092;8.542;2024-01-06T04:59:52;98306.44;;;15.01;50.33
9893;BME280;4985;49.092;8.542;2024-01-06T05:02:17;98296.88;;;15.00;50.33
9893;BME280;4985;49.092;8.542;2024-01-06T05:04:43;98296.88;;;15.00;50.29
9893;BME280;4985;49.092;8.542;2024-01-06T05:07:08;98302.16;;;15.00;50.34
9893;BME280;4985;49.092;8.542;2024-01-06T05:09:33;98301.38;;;15.00;50.25
9893;BME280;4985;49.092;8.542;2024-01-06T05:11:59;98305.84;;;14.99;50.59
9893;BME280;4985;49.092;8.542;2024-01-06T05:14:24;98305.03;;;14.99;50.43
9893;BME280;4985;49.092;8.542;2024-01-06T05:16:49;98300.78;;;14.98;50.25
9893;BME280;4985;49.092;8.542;2024-01-06T05:19:15;98301.59;;;14.98;50.19
9893;BME280;4985;49.092;8.542;2024-01-06T05:21:45;98311.16;;;14.99;50.63
9893;BME280;4985;49.092;8.542;2024-01-06T05:24:11;98305.84;;;14.99;50.38
9893;BME280;4985;49.092;8.542;2024-01-06T05:26:36;98298.72;;;15.00;50.63
9893;BME280;4985;49.092;8.542;2024-01-06T05:29:02;98304.00;;;15.00;50.28
9893;BME280;4985;49.092;8.542;2024-01-06T05:31:28;98296.88;;;15.00;50.66
9893;BME280;4985;49.092;8.542;2024-01-06T05:33:53;98296.88;;;15.00;50.69
9893;BME280;4985;49.092;8.542;2024-01-06T05:36:19;98302.97;;;15.01;50.40
9893;BME280;4985;49.092;8.542;2024-01-06T05:38:47;98302.16;;;15.00;50.25
9893;BME280;4985;49.092;8.542;2024-01-06T05:41:12;98297.69;;;15.01;50.53
9893;BME280;4985;49.092;8.542;2024-01-06T05:43:38;98296.88;;;15.00;50.50
9893;BME280;4985;49.092;8.542;2024-01-06T05:46:04;98302.16;;;15.00;50.70
9893;BME280;4985;49.092;8.542;2024-01-06T05:48:29;98306.66;;;15.00;50.27
9893;BME280;4985;49.092;8.542;2024-01-06T05:50:54;98310.34;;;14.99;50.64
9893;BME280;4985;49.092;8.542;2024-01-06T05:53:20;98313.81;;;14.99;50.70
9893;BME280;4985;49.092;8.542;2024-01-06T05:55:45;98317.47;;;14.98;50.45
9893;BME280;4985;49.092;8.542;2024-01-06T05:58:10;98316.66;;;14.98;50.60
9893;BME280;4985;49.092;8.542;2024-01-06T06:00:36;98318.50;;;14.97;50.75
9893;BME280;4985;49.092;8.542;2024-01-06T06:03:01;98323.59;;;14.99;50.43
9893;BME280;4985;49.092;8.542;2024-01-06T06:05:26;98323.81;;;14.97;50.51
9893;BME280;4985;49.092;8.542;2024-01-06T06:07:52;98328.09;;;14.98;50.74
9893;BME280;4985;49.092;8.542;2024-01-06T06:10:17;98336.03;;;14.98;50.60
9893;BME280;4985;49.092;8.542;2024-01-06T06:12:45;98338.69;;;14.98;50.59
9893;BME280;4985;49.092;8.542;2024-01-06T06:15:11;98336.03;;;14.98;50.35
9893;BME280;4985;49.092;8.542;2024-01-06T06:17:36;98339.72;;;14.97;50.26
9893;BME280;4985;49.092;8.542;2024-01-06T06:20:02;98339.72;;;14.97;50.53
9893;BME280;4985;49.092;8.542;2024-01-06T06:22:28;98352.97;;;14.97;50.74
9893;BME280;4985;49.092;8.542;2024-01-06T06:25:01;98355.63;;;14.97;50.41
9893;BME280;4985;49.092;8.542;2024-01-06T06:27:27;98365.41;;;14.97;50.44
9893;BME280;4985;49.092;8.542;2024-01-06T06:29:53;98365.41;;;14.97;50.76
9893;BME280;4985;49.092;8.542;2024-01-06T06:32:19;98372.31;;;14.98;50.37
9893;BME280;4985;49.092;8.542;2024-01-06T06:34:44;98373.34;;;14.97;50.64
9893;BME280;4985;49.092;8.542;2024-01-06T06:37:10;98374.16;;;14.97;50.73
9893;BME280;4985;49.092;8.542;2024-01-06T06:39:35;98372.53;;;14.96;50.76
9893;BME280;4985;49.092;8.542;2024-01-06T06:42:01;98372.53;;;14.96;50.64
9893;BME280;4985;49.092;8.542;2024-01-06T06:44:27;98377.84;;;14.96;50.58
9893;BME280;4985;49.092;8.542;2024-01-06T06:46:53;98377.84;;;14.96;50.39
9893;BME280;4985;49.092;8.542;2024-01-06T06:49:18;98379.69;;;14.96;50.61
9893;BME280;4985;49.092;8.542;2024-01-06T06:51:43;98391.09;;;14.96;50.90
9893;BME280;4985;49.092;8.542;2024-01-06T06:54:13;98384.34;;;14.94;50.77
9893;BME280;4985;49.092;8.542;2024-01-06T06:56:39;98387.00;;;14.94;50.34
9893;BME280;4985;49.092;8.542;2024-01-06T06:59:05;98387.81;;;14.94;50.56
9893;BME280;4985;49.092;8.542;2024-01-06T07:01:30;98396.78;;;14.93;50.68
9893;BME280;4985;49.092;8.542;2024-01-06T07:03:56;98399.44;;;14.93;50.62
9893;BME280;4985;49.092;8.542;2024-01-06T07:06:21;98397.81;;;14.92;50.40
9893;BME280;4985;49.092;8.542;2024-01-06T07:08:46;98410.84;;;14.94;50.67
9893;BME280;4985;49.092;8.542;2024-01-06T07:11:12;98410.03;;;14.93;50.39
9893;BME280;4985;49.092;8.542;2024-01-06T07:13:40;98419.03;;;14.92;50.58
9893;BME280;4985;49.092;8.542;2024-01-06T07:16:05;98420.03;;;14.91;50.61
9893;BME280;4985;49.092;8.542;2024-01-06T07:18:31;98422.09;;;14.89;50.39
9893;BME280;4985;49.092;8.542;2024-01-06T07:20:56;98429.03;;;14.90;50.45
9893;BME280;4985;49.092;8.542;2024-01-06T07:23:22;98432.69;;;14.89;50.69
9893;BME280;4985;49.092;8.542;2024-01-06T07:25:47;98429.84;;;14.91;50.75
9893;BME280;4985;49.092;8.542;2024-01-06T07:28:12;98429.03;;;14.90;50.68
9893;BME280;4985;49.092;8.542;2024-01-06T07:30:37;98427.41;;;14.89;50.68
9893;BME280;4985;49.092;8.542;2024-01-06T07:33:04;98422.91;;;14.90;50.29
9893;BME280;4985;49.092;8.542;2024-01-06T07:35:29;98431.06;;;14.88;50.38
9893;BME280;4985;49.092;8.542;2024-01-06T07:37:54;98436.38;;;14.88;50.33
9893;BME280;4985;49.092;8.542;2024-01-06T07:40:19;98436.38;;;14.88;50.50
9893;BME280;4985;49.092;8.542;2024-01-06T07:42:45;98439.03;;;14.88;50.61
9893;BME280;4985;49.092;8.542;2024-01-06T07:45:10;98437.41;;;14.87;50.22
9893;BME280;4985;49.092;8.542;2024-01-06T07:47:36;98437.41;;;14.87;50.45
9893;BME280;4985;49.092;8.542;2024-01-06T07:50:02;98441.06;;;14.86;50.36
9893;BME280;4985;49.092;8.542;2024-01-06T07:52:28;98443.72;;;14.86;50.23
9893;BME280;4985;49.092;8.542;2024-01-06T07:54:53;98441.28;;;14.84;50.34
9893;BME280;4985;49.092;8.542;2024-01-06T07:57:18;98451.91;;;14.84;50.39
9893;BME280;4985;49.092;8.542;2024-01-06T07:59:45;98450.88;;;14.85;50.25
9893;BME280;4985;49.092;8.542;2024-01-06T08:02:10;98455.34;;;14.85;50.36
9893;BME280;4985;49.092;8.542;2024-01-06T08:04:36;98464.94;;;14.86;50.23
9893;BME280;4985;49.092;8.542;2024-01-06T08:07:01;98464.94;;;14.86;50.23
9893;BME280;4985;49.092;8.542;2024-01-06T08:09:26;98464.94;;;14.86;50.54
9893;BME280;4985;49.092;8.542;2024-01-06T08:11:52;98459.63;;;14.86;50.12
9893;BME280;4985;49.092;8.542;2024-01-06T08:14:17;98459.63;;;14.86;50.14
9893;BME280;4985;49.092;8.542;2024-01-06T08:16:43;98459.63;;;14.86;50.13
9893;BME280;4985;49.092;8.542;2024-01-06T08:19:09;98458.00;;;14.85;50.52
9893;BME280;4985;49.092;8.542;2024-01-06T08:21:34;98462.50;;;14.84;50.33
9893;BME280;4985;49.092;8.542;2024-01-06T08:24:00;98462.50;;;14.84;50.22
9893;BME280;4985;49.092;8.542;2024-01-06T08:26:26;98468.59;;;14.85;50.20
9893;BME280;4985;49.092;8.542;2024-01-06T08:28:51;98466.97;;;14.84;50.29
9893;BME280;4985;49.092;8.542;2024-01-06T08:31:17;98463.31;;;14.85;50.25
9893;BME280;4985;49.092;8.542;2024-01-06T08:33:43;98466.97;;;14.84;50.14
9893;BME280;4985;49.092;8.542;2024-01-06T08:36:08;98477.56;;;14.84;50.17
9893;BME280;4985;49.092;8.542;2024-01-06T08:38:34;98481.22;;;14.83;50.05
9893;BME280;4985;49.092;8.542;2024-01-06T08:41:01;98488.16;;;14.84;50.21
9893;BME280;4985;49.092;8.542;2024-01-06T08:43:27;98493.47;;;14.84;50.40
9893;BME280;4985;49.092;8.542;2024-01-06T08:45:52;98495.09;;;14.85;50.15
9893;BME280;4985;49.092;8.542;2024-01-06T08:48:18;98489.78;;;14.85;50.38
9893;BME280;4985;49.092;8.542;2024-01-06T08:50:44;98491.41;;;14.86;50.35
9893;BME280;4985;49.092;8.542;2024-01-06T08:53:10;98492.44;;;14.85;50.51
9893;BME280;4985;49.092;8.542;2024-01-06T08:55:36;98502.84;;;14.87;50.54
9893;BME280;4985;49.092;8.542;2024-01-06T08:58:01;98502.03;;;14.86;50.56
9893;BME280;4985;49.092;8.542;2024-01-06T09:00:26;98502.22;;;14.84;50.53
9893;BME280;4985;49.092;8.542;2024-01-06T09:02:52;98501.41;;;14.84;50.20
9893;BME280;4985;49.092;8.542;2024-01-06T09:05:17;98503.22;;;14.83;50.51
9893;BME280;4985;49.092;8.542;2024-01-06T09:07:42;98497.94;;;14.83;50.34
9893;BME280;4985;49.092;8.542;2024-01-06T09:10:08;98498.13;;;14.82;50.10
9893;BME280;4985;49.092;8.542;2024-01-06T09:12:35;98494.69;;;14.81;50.21
9893;BME280;4985;49.092;8.542;2024-01-06T09:15:00;98502.63;;;14.81;50.46
9893;BME280;4985;49.092;8.542;2024-01-06T09:17:25;98491.22;;;14.81;49.89
9893;BME280;4985;49.092;8.542;2024-01-06T09:19:51;98497.53;;;14.80;50.07
9893;BME280;4985;49.092;8.542;2024-01-06T09:22:19;98506.50;;;14.79;50.15
9893;BME280;4985;49.092;8.542;2024-01-06T09:24:44;98513.88;;;14.77;49.97
9893;BME280;4985;49.092;8.542;2024-01-06T09:27:09;98514.69;;;14.77;50.00
9893;BME280;4985;49.092;8.542;2024-01-06T09:29:34;98509.38;;;14.77;50.08
9893;BME280;4985;49.092;8.542;2024-01-06T09:32:00;98513.88;;;14.77;50.07
9893;BME280;4985;49.092;8.542;2024-01-06T09:34:25;98519.16;;;14.77;50.03
9893;BME280;4985;49.092;8.542;2024-01-06T09:36:50;98518.13;;;14.78;49.68
9893;BME280;4985;49.092;8.542;2024-01-06T09:39:16;98521.00;;;14.76;49.97
9893;BME280;4985;49.092;8.542;2024-01-06T09:41:41;98528.94;;;14.76;49.85
9893;BME280;4985;49.092;8.542;2024-01-06T09:44:07;98520.19;;;14.76;49.88
9893;BME280;4985;49.092;8.542;2024-01-06T09:46:32;98526.50;;;14.75;49.83
9893;BME280;4985;49.092;8.542;2024-01-06T09:48:58;98526.50;;;14.75;49.71
9893;BME280;4985;49.092;8.542;2024-01-06T09:51:24;98533.44;;;14.76;50.18
9893;BME280;4985;49.092;8.542;2024-01-06T09:54:00;98534.25;;;14.76;49.85
9893;BME280;4985;49.092;8.542;2024-01-06T09:56:27;98534.47;;;14.75;49.74
9893;BME280;4985;49.092;8.542;2024-01-06T09:58:53;98539.97;;;14.73;50.03
9893;BME280;4985;49.092;8.542;2024-01-06T10:01:19;98544.25;;;14.74;49.79
9893;BME280;4985;49.092;8.542;2024-01-06T10:03:44;98539.97;;;14.73;49.70
9893;BME280;4985;49.092;8.542;2024-01-06T10:06:16;98537.50;;;14.72;49.82
9893;BME280;4985;49.092;8.542;2024-01-06T10:08:52;98548.09;;;14.72;49.75
9893;BME280;4985;49.092;8.542;2024-01-06T10:11:22;98543.00;;;14.70;49.51
9893;BME280;4985;49.092;8.542;2024-01-06T10:13:51;98542.81;;;14.72;49.69
9893;BME280;4985;49.092;8.542;2024-01-06T10:16:17;98541.00;;;14.72;49.82
9893;BME280;4985;49.092;8.542;2024-01-06T10:18:43;98540.78;;;14.74;50.06
9893;BME280;4985;49.092;8.542;2024-01-06T10:21:09;98538.34;;;14.72;50.12
9893;BME280;4985;49.092;8.542;2024-01-06T10:23:34;98539.16;;;14.73;50.16
9893;BME280;4985;49.092;8.542;2024-01-06T10:26:01;98539.16;;;14.73;50.18
9893;BME280;4985;49.092;8.542;2024-01-06T10:28:28;98540.78;;;14.74;49.68
9893;BME280;4985;49.092;8.542;2024-01-06T10:30:54;98548.72;;;14.74;50.11
9893;BME280;4985;49.092;8.542;2024-01-06T10:33:21;98547.09;;;14.73;49.91
9893;BME280;4985;49.092;8.542;2024-01-06T10:35:48;98540.78;;;14.74;49.84
9893;BME280;4985;49.092;8.542;2024-01-06T10:38:14;98545.06;;;14.75;50.22
9893;BME280;4985;49.092;8.542;2024-01-06T10:40:55;98543.81;;;14.77;50.02
9893;BME280;4985;49.092;8.542;2024-01-06T10:43:23;98544.03;;;14.76;50.04
9893;BME280;4985;49.092;8.542;2024-01-06T10:45:50;98532.63;;;14.75;49.88
9893;BME280;4985;49.092;8.542;2024-01-06T10:48:18;98539.34;;;14.78;50.11
9893;BME280;4985;49.092;8.542;2024-01-06T10:50:44;98539.34;;;14.78;50.08
9893;BME280;4985;49.092;8.542;2024-01-06T10:53:10;98543.59;;;14.79;50.10
9893;BME280;4985;49.092;8.542;2024-01-06T10:55:38;98546.25;;;14.79;50.00
9893;BME280;4985;49.092;8.542;2024-01-06T10:58:05;98533.81;;;14.79;50.13
9893;BME280;4985;49.092;8.542;2024-01-06T11:00:31;98540.97;;;14.79;50.07
9893;BME280;4985;49.092;8.542;2024-01-06T11:02:57;98546.47;;;14.77;50.15
9893;BME280;4985;49.092;8.542;2024-01-06T11:05:25;98539.34;;;14.78;49.82
9893;BME280;4985;49.092;8.542;2024-01-06T11:07:51;98542.78;;;14.78;49.83
9893;BME280;4985;49.092;8.542;2024-01-06T11:10:21;98539.53;;;14.76;49.81
9893;BME280;4985;49.092;8.542;2024-01-06T11:13:07;98542.78;;;14.78;49.83
9893;BME280;4985;49.092;8.542;2024-01-06T11:18:06;98540.34;;;14.77;49.74
9893;BME280;4985;49.092;8.542;2024-01-06T11:20:31;98534.03;;;14.78;50.07
9893;BME280;4985;49.092;8.542;2024-01-06T11:23:17;98537.28;;;14.80;49.94
9893;BME280;4985;49.092;8.542;2024-01-06T11:25:43;98541.78;;;14.79;49.99
9893;BME280;4985;49.092;8.542;2024-01-06T11:28:09;98538.31;;;14.79;49.75
9893;BME280;4985;49.092;8.542;2024-01-06T11:30:37;98534.63;;;14.80;49.88
9893;BME280;4985;49.092;8.542;2024-01-06T11:33:04;98534.41;;;14.81;50.13
9893;BME280;4985;49.092;8.542;2024-01-06T11:35:30;98531.78;;;14.81;49.91
9893;BME280;4985;49.092;8.542;2024-01-06T11:37:57;98541.56;;;14.81;49.83
9893;BME280;4985;49.092;8.542;2024-01-06T11:40:24;98532.59;;;14.82;49.57
9893;BME280;4985;49.092;8.542;2024-01-06T11:43:11;98528.91;;;14.83;49.76
9893;BME280;4985;49.092;8.542;2024-01-06T11:45:41;98528.09;;;14.82;49.65
9893;BME280;4985;49.092;8.542;2024-01-06T11:48:09;98534.22;;;14.83;50.08
9893;BME280;4985;49.092;8.542;2024-01-06T11:50:38;98525.25;;;14.84;49.95
9893;BME280;4985;49.092;8.542;2024-01-06T11:53:04;98533.22;;;14.84;49.73
9893;BME280;4985;49.092;8.542;2024-01-06T11:55:30;98532.38;;;14.83;49.84
9893;BME280;4985;49.092;8.542;2024-01-06T11:58:03;98532.59;;;14.82;49.59
9893;BME280;4985;49.092;8.542;2024-01-06T12:00:29;98530.56;;;14.84;49.84
9893;BME280;4985;49.092;8.542;2024-01-06T12:02:56;98523.63;;;14.83;49.70
9893;BME280;4985;49.092;8.542;2024-01-06T12:05:22;98520.16;;;14.82;49.77
9893;BME280;4985;49.092;8.542;2024-01-06T12:07:58;98524.41;;;14.83;49.34
9893;BME280;4985;49.092;8.542;2024-01-06T12:10:25;98518.31;;;14.83;49.35
9893;BME280;4985;49.092;8.542;2024-01-06T12:13:05;98524.41;;;14.83;49.74
9893;BME280;4985;49.092;8.542;2024-01-06T12:15:32;98522.00;;;14.82;49.54
9893;BME280;4985;49.092;8.542;2024-01-06T12:17:58;98519.34;;;14.82;49.62
9893;BME280;4985;49.092;8.542;2024-01-06T12:20:25;98511.38;;;14.82;49.50
9893;BME280;4985;49.092;8.542;2024-01-06T12:22:54;98518.53;;;14.81;49.48
9893;BME280;4985;49.092;8.542;2024-01-06T12:25:21;98513.00;;;14.83;49.46
9893;BME280;4985;49.092;8.542;2024-01-06T12:27:48;98510.19;;;14.84;49.56
9893;BME280;4985;49.092;8.542;2024-01-06T12:30:17;98513.81;;;14.83;49.61
9893;BME280;4985;49.092;8.542;2024-01-06T12:32:47;98514.66;;;14.84;49.52
9893;BME280;4985;49.092;8.542;2024-01-06T12:35:14;98521.59;;;14.85;49.29
9893;BME280;4985;49.092;8.542;2024-01-06T12:37:41;98512.03;;;14.84;49.51
9893;BME280;4985;49.092;8.542;2024-01-06T12:40:08;98509.38;;;14.84;49.54
9893;BME280;4985;49.092;8.542;2024-01-06T12:42:34;98512.84;;;14.84;49.57
9893;BME280;4985;49.092;8.542;2024-01-06T12:44:59;98511.00;;;14.85;49.34
9893;BME280;4985;49.092;8.542;2024-01-06T12:47:24;98517.91;;;14.86;49.76
9893;BME280;4985;49.092;8.542;2024-01-06T12:49:50;98518.72;;;14.87;49.85
9893;BME280;4985;49.092;8.542;2024-01-06T12:52:15;98520.34;;;14.88;49.79
9893;BME280;4985;49.092;8.542;2024-01-06T12:54:40;98524.03;;;14.87;49.61
9893;BME280;4985;49.092;8.542;2024-01-06T12:57:07;98525.66;;;14.88;49.84
9893;BME280;4985;49.092;8.542;2024-01-06T12:59:32;98524.84;;;14.87;49.98
9893;BME280;4985;49.092;8.542;2024-01-06T13:01:58;98517.91;;;14.86;49.57
9893;BME280;4985;49.092;8.542;2024-01-06T13:04:23;98518.72;;;14.87;49.92
9893;BME280;4985;49.092;8.542;2024-01-06T13:06:48;98524.03;;;14.87;49.52
9893;BME280;4985;49.092;8.542;2024-01-06T13:09:15;98518.72;;;14.87;49.62
9893;BME280;4985;49.092;8.542;2024-01-06T13:11:41;98518.72;;;14.87;49.68
9893;BME280;4985;49.092;8.542;2024-01-06T13:14:07;98522.19;;;14.87;49.67
9893;BME280;4985;49.092;8.542;2024-01-06T13:16:32;98520.56;;;14.86;49.66
9893;BME280;4985;49.092;8.542;2024-01-06T13:18:58;98517.91;;;14.86;49.63